Hovedside
METAR-TAF:

METAR-TAF

Lufthavner :

Hévíz, Ungarn

breddegrad: 46-41-11N, lengdegrad: 017-09-33E, høyde over havet: 124 m

Gjeldene værobservasjon

Denne rapporten ble laget for 43 minutter siden, klokken 04:15 UTC
Vind 1 kt fra skiftende retning
Temperatur 18°C
Luftfuktighet 100%
Trykk 1011 hPa
Sikt: 7000 m

METAR: LHSM 220415Z AUTO VRB01KT 7000 NCD 18/18 Q1011

Tid: 06:58 (04:58 UTC)

Varsel

Denne rapporten ble laget for 14 timer og 43 minutter siden, klokken 14:15 UTC
Varsel gyldig fra 21. klokken 15 UTC til 21. klokken 24 UTC
Vind 6 kt fra Vest
Sikt 10 km eller mer
ingen skyer under 1500 m og ingen bygeskyer
Blir
fra 21. klokken 15 UTC til 21. klokken 17 UTC
Vind 5 kt fra Nord-nordvest
Blir
fra 21. klokken 17 UTC til 21. klokken 20 UTC
Vind 1 kt fra skiftende retning

TAF: LHSM 211415Z 2115/2124 26006KT CAVOK BECMG 2115/2117 33005KT BECMG 2117/2120 VRB01KT

Værobservasjoner og værvarsel for over 4000 flyplasser (METAR- og TAF-rapporter).

Tilgjengelige stasjoner er representert av de røde og gule prikkene på kartet.

Hold musepekeren over prikken for å se navnet på stasjonen.

Klikk så for å se værobservasjoner og -varsler.

For å forandre kartet kan du klikke på den grønne knappen med svart kryss for å zoome inn, på den grønne knappen med strek for å zoome ut, eller på de grønne pilene for å se tilstøtende kart.


METAR-TAF: